createdAt,value
2022-11-05T00:02:04.511Z,90.55
2022-11-05T00:04:50.003Z,90.71
2022-11-05T00:10:07.479Z,91.15
2022-11-05T00:12:52.781Z,91.19
2022-11-05T00:15:41.740Z,91.32
2022-11-05T00:18:08.426Z,91.42
2022-11-05T00:20:35.058Z,91.30
2022-11-05T00:23:20.827Z,91.23
2022-11-05T00:38:53.059Z,90.88
2022-11-05T00:41:19.745Z,90.92
2022-11-05T00:44:04.904Z,90.84
2022-11-05T00:46:31.590Z,90.92
2022-11-05T00:49:16.925Z,90.96
2022-11-05T00:51:43.583Z,91.08
2022-11-05T00:54:10.156Z,91.02
2022-11-05T00:56:36.783Z,91.01
2022-11-05T00:59:03.474Z,90.90
2022-11-05T01:01:30.231Z,91.03
2022-11-05T01:03:56.961Z,90.92
2022-11-05T01:06:23.372Z,90.73
2022-11-05T01:08:49.686Z,90.77
2022-11-05T01:11:36.929Z,90.89
2022-11-05T01:14:08.113Z,91.12
2022-11-05T01:16:35.032Z,91.19
2022-11-05T01:19:01.742Z,91.48
2022-11-05T01:21:28.129Z,91.48
2022-11-05T01:23:57.012Z,91.61
2022-11-05T01:26:23.338Z,91.57
2022-11-05T01:28:53.188Z,91.70
2022-11-05T01:31:19.859Z,91.44
2022-11-05T01:33:46.176Z,91.47
2022-11-05T01:36:12.582Z,91.40
2022-11-05T01:38:38.926Z,91.27
2022-11-05T01:41:05.414Z,91.32
2022-11-05T01:43:48.778Z,91.44
2022-11-05T01:46:16.113Z,91.15
2022-11-05T01:48:42.444Z,91.18
2022-11-05T01:51:09.808Z,91.17
2022-11-05T01:53:36.194Z,91.08
2022-11-05T01:56:12.959Z,90.98
2022-11-05T01:58:48.673Z,90.78
2022-11-05T02:01:15.762Z,90.76
2022-11-05T02:03:42.475Z,90.80
2022-11-05T02:06:14.491Z,90.79
2022-11-05T02:09:00.193Z,90.84
2022-11-05T02:11:26.868Z,90.79
2022-11-05T02:13:53.546Z,90.87
2022-11-05T02:16:40.787Z,91.07
2022-11-05T02:19:13.686Z,91.16
2022-11-05T02:21:55.529Z,91.19
2022-11-05T02:24:48.321Z,91.19
2022-11-05T02:27:22.106Z,91.31
2022-11-05T02:29:54.843Z,91.27
2022-11-05T02:32:33.576Z,91.50
2022-11-05T02:35:04.202Z,91.50
2022-11-05T02:37:42.515Z,91.52
2022-11-05T02:40:17.212Z,91.79
2022-11-05T02:42:51.363Z,91.61
2022-11-05T02:45:28.257Z,91.61
2022-11-05T02:48:03.910Z,91.71
2022-11-05T02:50:32.103Z,91.81
2022-11-05T02:53:02.876Z,91.85
2022-11-05T02:55:36.853Z,91.87
2022-11-05T02:58:04.377Z,91.90
2022-11-05T03:00:49.556Z,91.91
2022-11-05T03:03:25.824Z,91.83
2022-11-05T03:06:01.260Z,91.71
2022-11-05T03:08:46.367Z,91.85
2022-11-05T03:11:17.942Z,91.75
2022-11-05T03:13:48.175Z,91.65
2022-11-05T03:16:31.507Z,91.78
2022-11-05T03:19:04.561Z,91.60
2022-11-05T03:21:38.622Z,91.65
2022-11-05T03:24:13.852Z,91.79
2022-11-05T03:26:46.710Z,91.75
2022-11-05T03:29:14.523Z,91.58
2022-11-05T03:31:41.074Z,91.49
2022-11-05T03:34:07.842Z,91.47
2022-11-05T03:36:37.650Z,91.46
2022-11-05T03:39:05.397Z,91.48
2022-11-05T03:41:32.211Z,91.55
2022-11-05T03:43:58.900Z,91.55
2022-11-05T03:46:33.006Z,91.66
2022-11-05T03:49:00.285Z,91.45
2022-11-05T03:51:30.044Z,91.59
2022-11-05T03:53:58.239Z,91.60
2022-11-05T03:56:32.078Z,91.77
2022-11-05T03:58:59.390Z,91.72
2022-11-05T04:01:28.249Z,91.76
2022-11-05T04:03:54.909Z,91.64
2022-11-05T04:06:39.880Z,91.60
2022-11-05T04:09:25.275Z,91.63
2022-11-05T04:12:10.539Z,91.63
2022-11-05T04:14:39.637Z,91.43
2022-11-05T04:17:06.314Z,91.45
2022-11-05T04:19:54.182Z,91.55
2022-11-05T04:22:39.610Z,91.69
2022-11-05T04:25:06.233Z,91.79
2022-11-05T04:27:33.046Z,91.84
2022-11-05T04:30:18.130Z,91.84
2022-11-05T04:33:11.390Z,91.78
2022-11-05T04:35:45.021Z,91.79
2022-11-05T04:38:15.321Z,91.63
2022-11-05T04:40:41.955Z,91.60
2022-11-05T04:43:34.704Z,91.43
2022-11-05T04:46:01.322Z,91.27
2022-11-05T04:48:27.919Z,91.45
2022-11-05T04:50:54.450Z,91.30
2022-11-05T04:53:21.061Z,91.28
2022-11-05T04:55:47.595Z,91.31
2022-11-05T04:58:14.312Z,91.25
2022-11-05T05:00:41.002Z,91.23
2022-11-05T05:03:07.789Z,91.26
2022-11-05T05:05:34.541Z,91.24
2022-11-05T05:08:01.852Z,91.32
2022-11-05T05:10:28.353Z,91.44
2022-11-05T05:12:57.319Z,91.47
2022-11-05T05:15:23.915Z,91.47
2022-11-05T05:17:51.702Z,91.20
2022-11-05T05:20:37.093Z,91.21
2022-11-05T05:23:03.729Z,91.12
2022-11-05T05:25:30.563Z,91.04
2022-11-05T05:27:58.136Z,91.39
2022-11-05T05:30:24.941Z,91.55
2022-11-05T05:32:51.700Z,91.73
2022-11-05T05:35:18.243Z,91.70
2022-11-05T05:37:44.923Z,91.54
2022-11-05T05:40:14.203Z,91.45
2022-11-05T05:42:43.445Z,91.39
2022-11-05T05:45:14.614Z,91.10
2022-11-05T05:47:41.353Z,91.08
2022-11-05T05:50:08.203Z,91.12
2022-11-05T05:52:34.860Z,91.09
2022-11-05T05:55:01.365Z,91.12
2022-11-05T05:57:28.207Z,91.18
2022-11-05T05:59:54.868Z,91.29
2022-11-05T06:02:22.870Z,91.18
2022-11-05T06:04:49.591Z,91.28
2022-11-05T06:07:16.190Z,91.20
2022-11-05T06:09:42.825Z,90.91
2022-11-05T06:12:09.550Z,90.96
2022-11-05T06:14:36.079Z,90.91
2022-11-05T06:17:02.835Z,90.87
2022-11-05T06:19:29.736Z,90.47
2022-11-05T06:21:58.283Z,90.54
2022-11-05T06:24:25.054Z,90.22
2022-11-05T06:26:51.821Z,90.16
2022-11-05T06:29:18.497Z,90.13
2022-11-05T06:31:45.140Z,89.92
2022-11-05T06:34:12.840Z,89.92
2022-11-05T06:36:40.256Z,89.81
2022-11-05T06:39:11.089Z,89.99
2022-11-05T06:41:56.867Z,90.25
2022-11-05T06:44:24.459Z,89.99
2022-11-05T06:46:53.478Z,89.92
2022-11-05T06:49:22.376Z,89.86
2022-11-05T06:51:49.231Z,89.76
2022-11-05T06:54:15.933Z,89.72
2022-11-05T06:56:42.774Z,89.63
2022-11-05T06:59:09.382Z,89.71
2022-11-05T07:01:35.950Z,89.74
2022-11-05T07:04:02.373Z,89.65
2022-11-05T07:06:33.021Z,89.59
2022-11-05T07:09:02.159Z,89.38
2022-11-05T07:11:28.482Z,89.33
2022-11-05T07:13:54.783Z,89.30
2022-11-05T07:16:21.082Z,89.15
2022-11-05T07:18:47.441Z,89.27
2022-11-05T07:21:13.747Z,88.99
2022-11-05T07:23:40.047Z,89.09
2022-11-05T07:26:06.399Z,89.05
2022-11-05T07:28:32.708Z,88.97
2022-11-05T07:30:59.108Z,88.90
2022-11-05T07:33:25.762Z,89.02
2022-11-05T07:35:52.059Z,88.83
2022-11-05T07:38:19.242Z,88.79
2022-11-05T07:40:45.530Z,88.67
2022-11-05T07:43:12.135Z,88.44
2022-11-05T07:45:38.725Z,88.50
2022-11-05T07:48:05.288Z,88.66
2022-11-05T07:50:32.461Z,88.56
2022-11-05T07:53:10.274Z,88.56
2022-11-05T07:55:36.819Z,88.53
2022-11-05T07:58:03.226Z,88.77
2022-11-05T08:00:29.723Z,88.90
2022-11-05T08:02:59.623Z,89.06
2022-11-05T08:05:29.010Z,89.13
2022-11-05T08:07:55.527Z,89.05
2022-11-05T08:10:22.515Z,89.14
2022-11-05T08:12:48.837Z,89.31
2022-11-05T08:15:15.125Z,89.12
2022-11-05T08:17:41.982Z,89.05
2022-11-05T08:20:08.645Z,88.96
2022-11-05T08:22:34.946Z,89.14
2022-11-05T08:25:05.662Z,88.75
2022-11-05T08:27:33.211Z,88.43
2022-11-05T08:29:59.566Z,88.23
2022-11-05T08:32:25.906Z,87.63
2022-11-05T08:34:52.200Z,87.47
2022-11-05T08:37:18.502Z,87.21
2022-11-05T08:39:44.847Z,87.22
2022-11-05T08:42:11.426Z,87.14
2022-11-05T08:44:37.735Z,87.28
2022-11-05T08:47:04.033Z,86.85
2022-11-05T08:49:30.361Z,86.46
2022-11-05T08:51:56.673Z,86.32
2022-11-05T08:54:22.980Z,86.12
2022-11-05T08:56:49.538Z,86.13
2022-11-05T08:59:15.846Z,85.78
2022-11-05T09:01:42.247Z,85.28
2022-11-05T09:04:08.711Z,85.33
2022-11-05T09:06:35.014Z,85.47
2022-11-05T09:09:01.320Z,85.80
2022-11-05T09:11:49.564Z,85.48
2022-11-05T09:14:13.907Z,85.32
2022-11-05T09:16:41.877Z,85.24
2022-11-05T09:19:08.213Z,85.36
2022-11-05T09:21:34.650Z,85.62
2022-11-05T09:24:00.945Z,85.69
2022-11-05T09:26:27.358Z,85.82
2022-11-05T09:28:53.964Z,85.83
2022-11-05T09:31:20.333Z,85.74
2022-11-05T09:33:46.614Z,85.05
2022-11-05T09:36:12.935Z,84.68
2022-11-05T09:38:39.258Z,84.84
2022-11-05T09:41:16.826Z,85.16
2022-11-05T09:43:50.697Z,85.29
2022-11-05T09:46:30.154Z,85.15
2022-11-05T09:48:57.686Z,84.76
2022-11-05T09:51:24.450Z,84.56
2022-11-05T09:53:51.282Z,84.13
2022-11-05T09:56:27.461Z,84.31
2022-11-05T09:58:59.822Z,83.79
2022-11-05T10:01:31.411Z,83.71
2022-11-05T10:03:58.556Z,83.66
2022-11-05T10:06:25.624Z,83.73
2022-11-05T10:08:54.695Z,84.07
2022-11-05T10:11:23.953Z,83.96
2022-11-05T10:13:58.540Z,83.76
2022-11-05T10:16:26.370Z,84.11
2022-11-05T10:18:54.243Z,84.26
2022-11-05T10:21:37.796Z,84.49
2022-11-05T10:24:12.113Z,84.57
2022-11-05T10:26:38.438Z,84.58
2022-11-05T10:29:04.713Z,84.78
2022-11-05T10:31:35.662Z,84.99
2022-11-05T10:34:02.561Z,84.65
2022-11-05T10:36:34.004Z,84.55
2022-11-05T10:39:20.593Z,84.45
2022-11-05T10:41:47.077Z,82.94
2022-11-05T10:44:25.413Z,82.62
2022-11-05T10:47:10.265Z,82.19
2022-11-05T10:49:46.033Z,82.12
2022-11-05T10:52:32.011Z,81.65
2022-11-05T10:55:02.310Z,81.59
2022-11-05T10:57:31.602Z,81.39
2022-11-05T11:00:16.595Z,81.67
2022-11-05T11:02:43.256Z,81.25
2022-11-05T11:05:19.981Z,80.82
2022-11-05T11:07:52.162Z,80.56
2022-11-05T11:10:19.299Z,80.42
2022-11-05T11:12:45.593Z,80.25
2022-11-05T11:15:15.903Z,80.22
2022-11-05T11:17:42.226Z,80.18
2022-11-05T11:20:27.194Z,79.81
2022-11-05T11:22:59.619Z,79.81
2022-11-05T11:25:30.333Z,79.55
2022-11-05T11:27:56.697Z,80.01
2022-11-05T11:30:23.033Z,80.79
2022-11-05T11:32:49.420Z,81.27
2022-11-05T11:35:20.495Z,81.46
2022-11-05T11:37:46.792Z,80.91
2022-11-05T11:40:16.034Z,81.38
2022-11-05T11:42:45.341Z,81.32
2022-11-05T11:45:16.026Z,80.98
2022-11-05T11:47:43.039Z,80.46
2022-11-05T11:50:14.085Z,80.48
2022-11-05T11:52:40.381Z,80.57
2022-11-05T11:55:12.793Z,79.84
2022-11-05T11:57:46.323Z,79.30
2022-11-05T12:00:12.868Z,79.49
2022-11-05T12:02:43.190Z,80.27
2022-11-05T12:05:35.961Z,80.94
2022-11-05T12:08:15.579Z,81.08
2022-11-05T12:10:48.961Z,81.29
2022-11-05T12:13:18.226Z,81.71
2022-11-05T12:15:50.422Z,81.85
2022-11-05T12:18:25.959Z,81.84
2022-11-05T12:21:06.349Z,82.04
2022-11-05T12:23:43.667Z,82.24
2022-11-05T12:26:09.925Z,82.39
2022-11-05T12:29:04.537Z,82.33
2022-11-05T12:31:30.814Z,82.71
2022-11-05T12:34:11.713Z,82.54
2022-11-05T12:36:54.339Z,82.60
2022-11-05T12:39:20.598Z,81.88
2022-11-05T12:41:53.103Z,80.24
2022-11-05T12:44:35.739Z,79.54
2022-11-05T12:47:02.044Z,79.95
2022-11-05T12:49:31.130Z,80.33
2022-11-05T12:52:07.274Z,80.72
2022-11-05T12:54:36.558Z,81.33
2022-11-05T12:57:03.629Z,81.25
2022-11-05T12:59:32.349Z,81.54
2022-11-05T13:02:07.868Z,81.78
2022-11-05T13:04:36.631Z,82.21
2022-11-05T13:07:04.100Z,82.57
2022-11-05T13:09:38.625Z,82.55
2022-11-05T13:12:06.605Z,82.54
2022-11-05T13:14:38.003Z,83.16
2022-11-05T13:17:33.671Z,83.19
2022-11-05T13:19:59.905Z,83.49
2022-11-05T13:22:33.026Z,83.32
2022-11-05T13:25:01.088Z,83.13
2022-11-05T13:27:39.507Z,83.29
2022-11-05T13:30:06.809Z,83.27
2022-11-05T13:32:37.247Z,82.98
2022-11-05T13:35:04.561Z,82.65
2022-11-05T13:37:53.750Z,82.66
2022-11-05T13:40:21.121Z,81.93
2022-11-05T13:42:56.445Z,80.70
2022-11-05T13:45:22.695Z,80.89
2022-11-05T13:47:55.047Z,80.17
2022-11-05T13:50:36.598Z,80.40
2022-11-05T13:53:21.676Z,80.29
2022-11-05T13:55:56.754Z,80.75
2022-11-05T13:58:30.092Z,80.66
2022-11-05T14:01:09.259Z,80.06
2022-11-05T14:03:35.704Z,80.08
2022-11-05T14:06:02.984Z,80.31
2022-11-05T14:08:29.269Z,80.83
2022-11-05T14:10:58.558Z,81.37
2022-11-05T14:13:33.938Z,81.98
2022-11-05T14:16:00.202Z,82.04
2022-11-05T14:18:37.056Z,82.09
2022-11-05T14:21:03.976Z,82.32
2022-11-05T14:23:30.653Z,82.22
2022-11-05T14:25:57.718Z,82.34
2022-11-05T14:28:37.593Z,82.20
2022-11-05T14:31:13.040Z,82.69
2022-11-05T14:33:39.542Z,82.89
2022-11-05T14:36:20.809Z,82.97
2022-11-05T14:38:50.816Z,82.63
2022-11-05T14:41:17.163Z,82.03
2022-11-05T14:43:47.704Z,81.92
2022-11-05T14:46:13.993Z,81.38
2022-11-05T14:48:47.403Z,81.42
2022-11-05T14:51:25.801Z,81.34
2022-11-05T14:53:58.074Z,81.45
2022-11-05T14:56:24.377Z,81.09
2022-11-05T14:58:50.678Z,81.26
2022-11-05T15:01:32.452Z,81.17
2022-11-05T15:04:01.997Z,80.90
2022-11-05T15:06:32.523Z,81.08
2022-11-05T15:09:04.871Z,81.73
2022-11-05T15:11:38.310Z,82.17
2022-11-05T15:14:05.637Z,82.67
2022-11-05T15:16:36.871Z,82.87
2022-11-05T15:19:03.293Z,83.26
2022-11-05T15:21:30.922Z,83.31
2022-11-05T15:23:57.302Z,83.72
2022-11-05T15:26:37.349Z,83.58
2022-11-05T15:29:03.773Z,83.66
2022-11-05T15:31:37.362Z,83.31
2022-11-05T15:34:18.985Z,82.95
2022-11-05T15:36:48.322Z,82.55
2022-11-05T15:39:29.449Z,82.72
2022-11-05T15:41:56.467Z,82.96
2022-11-05T15:44:29.815Z,83.15
2022-11-05T15:47:12.402Z,83.05
2022-11-05T15:49:38.744Z,82.86
2022-11-05T15:52:05.057Z,82.66
2022-11-05T15:54:31.953Z,82.56
2022-11-05T15:56:58.694Z,82.59
2022-11-05T15:59:25.922Z,82.79
2022-11-05T16:01:59.756Z,82.88
2022-11-05T16:04:27.348Z,83.01
2022-11-05T16:06:54.427Z,82.87
2022-11-05T16:09:25.436Z,82.77
2022-11-05T16:12:10.590Z,82.73
2022-11-05T16:14:37.018Z,82.28
2022-11-05T16:17:29.688Z,82.33
2022-11-05T16:19:56.163Z,81.99
2022-11-05T16:22:23.655Z,81.69
2022-11-05T16:24:50.040Z,81.40
2022-11-05T16:27:19.605Z,81.74
2022-11-05T16:29:50.385Z,81.85
2022-11-05T16:32:17.303Z,81.79
2022-11-05T16:35:13.141Z,81.25
2022-11-05T16:37:40.895Z,81.58
2022-11-05T16:40:14.294Z,81.53
2022-11-05T16:42:40.960Z,81.68
2022-11-05T16:45:08.089Z,81.45
2022-11-05T16:47:34.530Z,81.76
2022-11-05T16:50:00.927Z,81.60
2022-11-05T16:52:27.260Z,81.81
2022-11-05T16:54:53.797Z,82.30
2022-11-05T16:57:29.656Z,82.37
2022-11-05T16:59:56.847Z,82.44
2022-11-05T17:02:23.287Z,82.53
2022-11-05T17:04:49.694Z,82.35
2022-11-05T17:07:16.013Z,82.68
2022-11-05T17:09:42.324Z,82.89
2022-11-05T17:12:09.350Z,83.05
2022-11-05T17:14:35.702Z,82.90
2022-11-05T17:17:02.045Z,82.65
2022-11-05T17:19:28.359Z,82.88
2022-11-05T17:21:54.718Z,83.30
2022-11-05T17:24:21.233Z,83.51
2022-11-05T17:26:47.611Z,83.50
2022-11-05T17:29:13.990Z,83.65
2022-11-05T17:31:40.567Z,83.71
2022-11-05T17:34:07.168Z,83.70
2022-11-05T17:36:33.519Z,83.91
2022-11-05T17:38:59.890Z,83.89
2022-11-05T17:41:26.269Z,83.95
2022-11-05T17:43:53.256Z,84.24
2022-11-05T17:46:19.808Z,84.29
2022-11-05T17:48:46.353Z,84.37
2022-11-05T17:51:15.046Z,84.27
2022-11-05T17:53:41.509Z,84.44
2022-11-05T17:56:08.622Z,84.15
2022-11-05T17:58:35.074Z,84.28
2022-11-05T18:01:01.581Z,84.38
2022-11-05T18:03:27.937Z,84.24
2022-11-05T18:05:54.251Z,84.17
2022-11-05T18:08:20.629Z,84.13
2022-11-05T18:10:47.016Z,84.16
2022-11-05T18:13:13.717Z,84.08
2022-11-05T18:15:41.414Z,83.95
2022-11-05T18:18:08.152Z,84.21
2022-11-05T18:20:34.458Z,84.13
2022-11-05T18:23:00.784Z,84.15
2022-11-05T18:25:27.125Z,84.04
2022-11-05T18:27:53.447Z,84.16
2022-11-05T18:30:19.873Z,84.07
2022-11-05T18:32:46.384Z,84.16
2022-11-05T18:35:13.383Z,84.11
2022-11-05T18:37:39.921Z,84.14
2022-11-05T18:40:06.565Z,84.12
2022-11-05T18:42:32.862Z,84.19
2022-11-05T18:44:59.182Z,84.09
2022-11-05T18:47:25.560Z,83.86
2022-11-05T18:49:51.883Z,83.87
2022-11-05T18:52:18.258Z,84.07
2022-11-05T18:54:44.636Z,83.97
2022-11-05T18:57:10.958Z,83.89
2022-11-05T18:59:39.510Z,84.00
2022-11-05T19:02:07.148Z,84.12
2022-11-05T19:04:34.913Z,84.21
2022-11-05T19:07:04.854Z,84.07
2022-11-05T19:09:32.451Z,83.60
2022-11-05T19:11:58.849Z,83.68
2022-11-05T19:14:25.188Z,83.80
2022-11-05T19:16:51.535Z,83.80
2022-11-05T19:19:17.898Z,83.84
2022-11-05T19:21:44.394Z,84.03
2022-11-05T19:24:16.748Z,84.05
2022-11-05T19:26:43.614Z,84.12
2022-11-05T19:29:09.977Z,83.85
2022-11-05T19:31:36.817Z,84.00
2022-11-05T19:34:03.265Z,84.06
2022-11-05T19:36:29.967Z,83.99
2022-11-05T19:38:57.414Z,83.97
2022-11-05T19:41:23.811Z,84.03
2022-11-05T19:43:50.314Z,83.84
2022-11-05T19:46:18.912Z,83.77
2022-11-05T19:48:45.565Z,83.79
2022-11-05T19:51:19.664Z,83.83
2022-11-05T19:53:45.998Z,83.90
2022-11-05T19:56:13.788Z,83.70
2022-11-05T19:58:40.236Z,83.30
2022-11-05T20:01:06.649Z,83.21
2022-11-05T20:03:33.048Z,83.18
2022-11-05T20:06:03.505Z,83.23
2022-11-05T20:08:29.934Z,83.16
2022-11-05T20:10:56.331Z,82.88
2022-11-05T20:13:22.911Z,82.66
2022-11-05T20:15:49.356Z,82.83
2022-11-05T20:18:16.454Z,82.73
2022-11-05T20:20:43.493Z,82.80
2022-11-05T20:23:09.822Z,82.84
2022-11-05T20:25:36.147Z,82.61
2022-11-05T20:28:02.732Z,82.57
2022-11-05T20:30:29.075Z,82.83
2022-11-05T20:32:55.855Z,82.50
2022-11-05T20:35:22.896Z,82.50
2022-11-05T20:37:53.784Z,82.43
2022-11-05T20:40:20.592Z,82.64
2022-11-05T20:42:46.889Z,82.74
2022-11-05T20:45:13.590Z,82.53
2022-11-05T20:47:39.936Z,82.57
2022-11-05T20:50:06.660Z,82.34
2022-11-05T20:52:33.282Z,82.28
2022-11-05T20:55:01.003Z,82.38
2022-11-05T20:57:27.323Z,82.32
2022-11-05T20:59:53.721Z,82.18
2022-11-05T21:02:20.168Z,82.26
2022-11-05T21:04:47.434Z,82.17
2022-11-05T21:07:13.740Z,82.07
2022-11-05T21:09:40.177Z,82.09
2022-11-05T21:12:12.439Z,82.08
2022-11-05T21:14:39.098Z,82.40
2022-11-05T21:17:05.747Z,82.19
2022-11-05T21:19:32.477Z,82.27
2022-11-05T21:21:58.838Z,82.07
2022-11-05T21:24:25.145Z,81.96
2022-11-05T21:26:51.510Z,81.90
2022-11-05T21:29:18.030Z,81.74
2022-11-05T21:31:45.103Z,81.64
2022-11-05T21:34:11.477Z,81.82
2022-11-05T21:36:37.890Z,81.63
2022-11-05T21:39:06.663Z,81.87
2022-11-05T21:41:36.826Z,81.84
2022-11-05T21:44:04.121Z,81.68
2022-11-05T21:46:30.752Z,81.64
2022-11-05T21:48:57.093Z,81.56
2022-11-05T21:51:42.189Z,81.51
2022-11-05T21:54:28.048Z,81.50
2022-11-05T21:57:13.163Z,81.45
2022-11-05T21:59:48.638Z,81.38
2022-11-05T22:02:16.456Z,81.49
2022-11-05T22:04:43.762Z,81.56
2022-11-05T22:07:11.050Z,81.36
2022-11-05T22:09:37.398Z,81.31
2022-11-05T22:12:04.386Z,81.13
2022-11-05T22:14:30.913Z,81.27
2022-11-05T22:16:57.433Z,81.03
2022-11-05T22:19:23.957Z,81.13
2022-11-05T22:21:50.335Z,81.06
2022-11-05T22:24:16.749Z,80.82
2022-11-05T22:26:43.310Z,80.68
2022-11-05T22:29:09.788Z,80.81
2022-11-05T22:31:36.878Z,80.72
2022-11-05T22:34:04.215Z,80.77
2022-11-05T22:36:30.554Z,80.81
2022-11-05T22:38:56.849Z,80.63
2022-11-05T22:41:23.244Z,80.57
2022-11-05T22:43:49.600Z,80.50
2022-11-05T22:46:22.482Z,80.27
2022-11-05T22:48:49.129Z,80.41
2022-11-05T22:51:16.690Z,80.30
2022-11-05T22:53:43.201Z,80.21
2022-11-05T22:56:10.338Z,80.35
2022-11-05T22:58:36.802Z,80.13
2022-11-05T23:01:03.779Z,80.10
2022-11-05T23:03:30.384Z,80.34
2022-11-05T23:06:34.578Z,80.36
2022-11-05T23:09:19.699Z,80.24
2022-11-05T23:11:47.182Z,80.19
2022-11-05T23:14:13.507Z,80.35
2022-11-05T23:16:58.752Z,80.55
2022-11-05T23:19:43.822Z,80.63
2022-11-05T23:22:41.891Z,80.69
2022-11-05T23:25:10.452Z,80.56
2022-11-05T23:27:37.501Z,80.75
2022-11-05T23:30:06.194Z,80.63
2022-11-05T23:32:33.438Z,80.69
2022-11-05T23:34:59.891Z,80.62
2022-11-05T23:37:46.036Z,80.65
2022-11-05T23:40:14.827Z,80.66
2022-11-05T23:43:00.445Z,80.75
2022-11-05T23:45:45.406Z,80.78
2022-11-05T23:48:18.059Z,80.87
2022-11-05T23:50:50.588Z,80.89
2022-11-05T23:53:16.942Z,80.87
2022-11-05T23:55:43.295Z,80.60
2022-11-05T23:58:09.934Z,80.58
